Etusivu
METAR-TAF:

METAR-TAF

Lentoasemat :

Ängelholm-Helsingborgin lentoasema

Helsingborg, Ruotsi

Leveyspiiri: 56-17-46N, Pituuspiiri: 012-50-50E, korkeus merenpinnasta: 21 m

Tämänhetkinen sää

Tämä raportti tehtiin 20 minuuttia sitten, kello 21.50 UTC
Tuuli 13 kn lännestä/luoteesta
Lämpötila 14°C
Kosteus 94%
Ilmanpaine 1009 hPa
Näkyvyys 10 km tai enemmän

METAR: ESTA 222150Z AUTO 30013KT 9999 FEW006/// SCT009/// BKN011/// 14/13 Q1009 REDZ

Aika: 00:10 (22:10 UTC)

Sääennuste

Tämä raportti tehtiin 10 tuntia ja 3 minuuttia sitten, kello 12.07 UTC
Ennuste voimassa 22. päivästä klo 12 UTC - 22. päivään klo 15 UTC
Tuuli 7 kn idästä/kaakosta
Näkyvyys: 5000 m
Pilvistä 400 ft:n korkeudessa
Ajoittain
22. päivästä klo 12 UTC - 22. päivään klo 15 UTC
Näkyvyys: 1500 m
Hajonneita pilviä 800 ft:n korkeudessa
Hajanaisia pilviä 1500 ft:n korkeudessa, Cumulonimbus.
vesikuuroja, utua,

TAF: ESTA 221207Z 2212/2215 12007KT 5000 OVC004 TEMPO 2212/2215 1500 SHRA BR BKN008 SCT015CB

Säähavainnot ja -ennusteet yli 4000 lentoasemalta (METAR- ja TAF-raportit).

Käytössä olevat sääasemat on merkitty karttaan keltaisilla ja punaisilla pisteillä.

Aseta hiiri pisteen päälle nähdäksesi sääaseman nimen.

Klikkaa sitten nähdäksesi säähavainnot ja -ennusteet.

Kartan vaihtaminen: klikkaa mustalla rastilla varustettuja vihreitä pisteitä, niin voit zoomata sisään; viivalla varustettua vihreää pistettä, niin voit zoomata ulos tai vihreitä nuolia, niin pääset viereisille kartoille.


METAR-TAF: